createdAt,value
2018-08-28T00:01:10.555Z,1.10
2018-08-28T00:06:13.883Z,1.23
2018-08-28T00:11:17.256Z,1.13
2018-08-28T00:16:20.622Z,1.10
2018-08-28T00:21:23.938Z,1.10
2018-08-28T00:26:27.253Z,1.40
2018-08-28T00:31:30.593Z,1.23
2018-08-28T00:36:33.903Z,1.40
2018-08-28T00:41:37.258Z,1.10
2018-08-28T00:46:40.567Z,1.50
2018-08-28T00:51:43.878Z,1.50
2018-08-28T00:56:47.182Z,1.10
2018-08-28T01:01:50.499Z,1.57
2018-08-28T01:06:53.891Z,1.40
2018-08-28T01:11:57.290Z,1.20
2018-08-28T01:17:00.610Z,1.20
2018-08-28T01:22:03.910Z,1.50
2018-08-28T01:27:07.219Z,1.50
2018-08-28T01:32:10.549Z,1.90
2018-08-28T01:37:13.878Z,1.43
2018-08-28T01:42:20.216Z,1.70
2018-08-28T01:47:23.534Z,1.53
2018-08-28T01:52:26.886Z,1.50
2018-08-28T01:57:30.170Z,1.60
2018-08-28T02:02:33.461Z,1.80
2018-08-28T02:07:36.818Z,1.53
2018-08-28T02:12:40.135Z,2.10
2018-08-28T02:17:43.488Z,1.80
2018-08-28T02:22:46.818Z,1.70
2018-08-28T02:27:50.113Z,1.70
2018-08-28T02:32:53.391Z,2.10
2018-08-28T02:37:56.689Z,1.90
2018-08-28T02:42:59.991Z,2.10
2018-08-28T02:48:03.275Z,2.00
2018-08-28T02:53:06.588Z,1.73
2018-08-28T02:58:09.869Z,2.00
2018-08-28T03:03:13.159Z,2.17
2018-08-28T03:08:16.429Z,1.83
2018-08-28T03:13:19.746Z,1.57
2018-08-28T03:18:23.024Z,1.80
2018-08-28T03:23:26.303Z,2.27
2018-08-28T03:28:29.637Z,1.90
2018-08-28T03:33:32.916Z,1.97
2018-08-28T03:38:36.186Z,1.80
2018-08-28T03:43:39.472Z,2.20
2018-08-28T03:48:42.773Z,1.77
2018-08-28T03:53:46.052Z,2.03
2018-08-28T03:58:49.364Z,1.80
2018-08-28T04:03:52.661Z,2.03
2018-08-28T04:08:55.924Z,1.80
2018-08-28T04:13:59.182Z,2.10
2018-08-28T04:19:02.456Z,1.83
2018-08-28T04:24:05.767Z,2.10
2018-08-28T04:29:09.039Z,2.40
2018-08-28T04:34:12.309Z,2.20
2018-08-28T04:39:15.584Z,2.20
2018-08-28T04:44:19.008Z,2.27
2018-08-28T04:49:22.279Z,2.23
2018-08-28T04:54:25.544Z,2.10
2018-08-28T04:59:28.839Z,2.30
2018-08-28T05:04:32.115Z,2.80
2018-08-28T05:09:35.449Z,2.93
2018-08-28T05:14:38.757Z,1.90
2018-08-28T05:19:42.064Z,2.17
2018-08-28T05:24:45.404Z,2.27
2018-08-28T05:29:48.756Z,2.30
2018-08-28T05:34:52.119Z,2.20
2018-08-28T05:39:55.411Z,2.10
2018-08-28T05:44:58.680Z,1.60
2018-08-28T05:50:01.969Z,1.90
2018-08-28T05:55:05.323Z,1.93
2018-08-28T06:00:08.675Z,2.33
2018-08-28T06:05:11.991Z,2.23
2018-08-28T06:10:15.312Z,2.40
2018-08-28T06:15:18.627Z,3.40
2018-08-28T06:20:21.897Z,2.63
2018-08-28T06:25:25.172Z,2.63
2018-08-28T06:30:28.708Z,2.70
2018-08-28T06:35:31.968Z,2.60
2018-08-28T06:40:35.259Z,2.33
2018-08-28T06:45:38.556Z,3.00
2018-08-28T06:50:41.830Z,2.57
2018-08-28T06:55:52.710Z,3.00
2018-08-28T07:00:55.996Z,2.73
2018-08-28T07:05:59.266Z,2.83
2018-08-28T07:11:02.588Z,3.03
2018-08-28T07:16:06.321Z,2.60
2018-08-28T07:21:09.580Z,2.87
2018-08-28T07:26:12.863Z,2.97
2018-08-28T07:31:16.233Z,3.27
2018-08-28T07:36:19.556Z,3.07
2018-08-28T07:41:22.855Z,3.42
2018-08-28T07:46:26.129Z,3.30
2018-08-28T07:51:29.432Z,3.47
2018-08-28T07:56:33.102Z,3.50
2018-08-28T08:01:36.385Z,4.23
2018-08-28T08:06:39.670Z,3.90
2018-08-28T08:11:42.950Z,3.83
2018-08-28T08:16:46.238Z,4.10
2018-08-28T08:21:49.521Z,4.50
2018-08-28T08:26:52.899Z,3.85
2018-08-28T08:31:56.183Z,4.92
2018-08-28T08:36:59.464Z,4.75
2018-08-28T08:42:02.818Z,4.70
2018-08-28T08:47:06.074Z,6.08
2018-08-28T08:52:09.355Z,5.67
2018-08-28T08:57:12.675Z,7.33
2018-08-28T09:02:15.933Z,5.53
2018-08-28T09:07:19.244Z,6.40
2018-08-28T09:12:22.957Z,6.10
2018-08-28T09:17:26.273Z,6.33
2018-08-28T09:22:29.566Z,6.87
2018-08-28T09:27:32.857Z,6.27
2018-08-28T09:32:36.165Z,6.80
2018-08-28T09:37:39.431Z,6.43
2018-08-28T09:42:42.710Z,5.97
2018-08-28T09:47:45.995Z,6.43
2018-08-28T09:52:49.288Z,6.77
2018-08-28T09:57:52.592Z,7.10
2018-08-28T10:02:56.421Z,7.07
2018-08-28T10:07:59.821Z,6.63
2018-08-28T10:13:03.012Z,7.20
2018-08-28T10:18:06.312Z,7.73
2018-08-28T10:23:09.777Z,7.25
2018-08-28T10:28:13.459Z,7.35
2018-08-28T10:33:16.765Z,7.83
2018-08-28T10:38:20.043Z,6.72
2018-08-28T10:43:23.336Z,8.93
2018-08-28T10:48:26.659Z,7.08
2018-08-28T10:53:29.934Z,9.10
2018-08-28T10:58:33.319Z,8.58
2018-08-28T11:03:36.507Z,8.50
2018-08-28T11:08:39.852Z,7.03
2018-08-28T11:13:43.084Z,9.25
2018-08-28T11:18:46.103Z,3.80
2018-08-28T11:23:49.376Z,4.50
2018-08-28T11:28:52.675Z,7.27
2018-08-28T11:33:55.971Z,5.95
2018-08-28T11:38:59.416Z,7.03
2018-08-28T11:44:02.702Z,7.22
2018-08-28T11:49:06.039Z,7.33
2018-08-28T11:54:09.330Z,7.20
2018-08-28T11:59:12.603Z,6.83
2018-08-28T12:04:15.902Z,8.45
2018-08-28T12:09:19.188Z,7.12
2018-08-28T12:14:22.486Z,6.78
2018-08-28T12:19:26.128Z,6.97
2018-08-28T12:24:29.638Z,7.08
2018-08-28T12:29:33.241Z,7.17
2018-08-28T12:34:41.691Z,7.15
2018-08-28T12:39:45.767Z,7.40
2018-08-28T12:44:49.194Z,6.97
2018-08-28T12:49:52.731Z,6.60
2018-08-28T12:56:05.418Z,7.20
2018-08-28T13:01:08.739Z,7.72
2018-08-28T13:06:12.007Z,7.05
2018-08-28T13:11:15.283Z,7.40
2018-08-28T13:16:18.592Z,7.12
2018-08-28T13:21:21.879Z,7.50
2018-08-28T13:26:25.147Z,7.25
2018-08-28T13:31:28.421Z,6.90
2018-08-28T13:36:31.710Z,7.28
2018-08-28T13:41:34.988Z,7.17
2018-08-28T13:46:38.264Z,7.42
2018-08-28T13:51:41.978Z,7.12
2018-08-28T13:56:45.553Z,7.83
2018-08-28T14:02:03.480Z,7.42
2018-08-28T14:07:11.235Z,7.58
2018-08-28T14:12:14.566Z,6.60
2018-08-28T14:17:18.160Z,6.87
2018-08-28T14:22:21.753Z,7.37
2018-08-28T14:27:24.755Z,7.60
2018-08-28T14:32:28.049Z,6.70
2018-08-28T14:37:31.330Z,7.20
2018-08-28T14:42:34.729Z,7.03
2018-08-28T14:47:37.965Z,7.15
2018-08-28T14:52:41.360Z,7.25
2018-08-28T14:57:45.416Z,7.28
2018-08-28T15:02:48.702Z,6.75
2018-08-28T15:07:52.015Z,7.17
2018-08-28T15:12:55.323Z,7.60
2018-08-28T15:17:58.646Z,7.20
2018-08-28T15:23:03.044Z,7.30
2018-08-28T15:28:06.334Z,7.40
2018-08-28T15:33:10.339Z,7.17
2018-08-28T15:38:13.608Z,7.42
2018-08-28T15:43:16.945Z,6.92
2018-08-28T15:48:20.218Z,7.47
2018-08-28T15:53:23.497Z,7.35
2018-08-28T15:58:28.555Z,7.25
2018-08-28T16:03:31.943Z,7.87
2018-08-28T16:08:35.214Z,7.67
2018-08-28T16:13:38.505Z,7.20
2018-08-28T16:18:41.883Z,7.20
2018-08-28T16:23:47.043Z,7.45
2018-08-28T16:28:50.353Z,7.42
2018-08-28T16:33:54.126Z,7.80
2018-08-28T16:38:57.430Z,6.92
2018-08-28T16:44:00.695Z,7.08
2018-08-28T16:49:04.025Z,6.92
2018-08-28T16:54:07.303Z,7.15
2018-08-28T16:59:10.591Z,7.37
2018-08-28T17:04:13.846Z,7.25
2018-08-28T17:09:18.124Z,7.15
2018-08-28T17:14:21.398Z,7.28
2018-08-28T17:19:24.755Z,6.95
2018-08-28T17:24:30.524Z,7.50
2018-08-28T17:29:36.812Z,7.22
2018-08-28T17:34:40.083Z,7.30
2018-08-28T17:39:43.366Z,6.53
2018-08-28T17:44:46.634Z,7.30
2018-08-28T17:49:49.898Z,7.07
2018-08-28T17:54:53.159Z,7.30
2018-08-28T17:59:56.481Z,7.63
2018-08-28T18:04:59.762Z,7.50
2018-08-28T18:10:02.843Z,7.03
2018-08-28T18:15:06.991Z,7.30
2018-08-28T18:20:10.830Z,6.87
2018-08-28T18:25:14.148Z,7.27
2018-08-28T18:30:22.073Z,7.47
2018-08-28T18:35:25.529Z,8.40
2018-08-28T18:40:29.148Z,6.97
2018-08-28T18:45:32.840Z,8.10
2018-08-28T18:50:36.596Z,7.37
2018-08-28T18:55:40.679Z,7.97
2018-08-28T19:00:44.536Z,8.23
2018-08-28T19:05:47.822Z,6.97
2018-08-28T19:10:50.891Z,7.70
2018-08-28T19:15:54.179Z,7.40
2018-08-28T19:20:59.230Z,8.10
2018-08-28T19:26:02.515Z,7.50
2018-08-28T19:31:06.133Z,7.97
2018-08-28T19:36:09.448Z,6.97
2018-08-28T19:41:12.749Z,7.60
2018-08-28T19:46:15.768Z,8.30
2018-08-28T19:51:20.429Z,7.50
2018-08-28T19:56:25.702Z,7.33
2018-08-28T20:01:29.682Z,7.90
2018-08-28T20:06:33.222Z,8.83
2018-08-28T20:11:37.466Z,8.93
2018-08-28T20:16:41.153Z,8.50
2018-08-28T20:21:45.200Z,7.53
2018-08-28T20:26:50.645Z,8.23
2018-08-28T20:31:54.750Z,8.93
2018-08-28T20:36:59.129Z,8.20
2018-08-28T20:42:02.868Z,8.07
2018-08-28T20:47:06.737Z,7.63
2018-08-28T20:52:10.328Z,8.20
2018-08-28T20:57:14.345Z,8.80
2018-08-28T21:02:18.251Z,8.80
2018-08-28T21:07:22.516Z,8.97
2018-08-28T21:12:27.761Z,8.20
2018-08-28T21:17:32.334Z,8.40
2018-08-28T21:22:36.084Z,7.70
2018-08-28T21:27:40.785Z,8.30
2018-08-28T21:32:46.706Z,8.23
2018-08-28T21:37:52.352Z,8.93
2018-08-28T21:42:57.397Z,7.70
2018-08-28T21:48:02.189Z,9.10
2018-08-28T21:53:05.500Z,8.17
2018-08-28T21:58:08.778Z,8.17
2018-08-28T22:03:12.802Z,8.03
2018-08-28T22:08:16.154Z,8.33
2018-08-28T22:13:19.492Z,8.03
2018-08-28T22:18:22.788Z,9.03
2018-08-28T22:23:26.433Z,8.63
2018-08-28T22:28:29.851Z,8.53
2018-08-28T22:33:33.532Z,8.97
2018-08-28T22:38:36.806Z,8.40
2018-08-28T22:43:40.088Z,8.47
2018-08-28T22:48:43.399Z,8.77
2018-08-28T22:53:46.727Z,8.23
2018-08-28T22:58:50.025Z,8.33
2018-08-28T23:03:53.351Z,8.80
2018-08-28T23:08:56.625Z,8.03
2018-08-28T23:13:59.953Z,8.60
2018-08-28T23:19:03.274Z,9.17
2018-08-28T23:24:06.587Z,8.73
2018-08-28T23:29:09.979Z,9.83
2018-08-28T23:34:13.271Z,8.60
2018-08-28T23:39:16.548Z,9.33
2018-08-28T23:44:19.838Z,9.03
2018-08-28T23:49:23.126Z,8.80
2018-08-28T23:54:26.390Z,9.23
2018-08-28T23:59:29.679Z,9.80
